createdAt,value
2018-08-22T00:03:49.755Z,40.7
2018-08-22T00:08:47.862Z,40.8
2018-08-22T00:13:45.893Z,40.8
2018-08-22T00:18:43.863Z,40.8
2018-08-22T00:23:41.788Z,40.8
2018-08-22T00:28:39.626Z,40.9
2018-08-22T00:33:37.640Z,40.9
2018-08-22T00:38:35.674Z,40.9
2018-08-22T00:43:33.802Z,40.9
2018-08-22T00:48:31.773Z,41
2018-08-22T00:53:29.783Z,40.9
2018-08-22T00:58:27.786Z,40.9
2018-08-22T01:03:25.818Z,41
2018-08-22T01:08:23.839Z,41
2018-08-22T01:13:21.385Z,41
2018-08-22T01:18:19.479Z,41
2018-08-22T01:23:17.627Z,41.1
2018-08-22T01:28:15.712Z,41.1
2018-08-22T01:33:13.698Z,41.1
2018-08-22T01:38:11.729Z,41.1
2018-08-22T01:43:09.699Z,41.1
2018-08-22T01:48:07.859Z,41.1
2018-08-22T01:53:06.103Z,41.2
2018-08-22T01:58:03.578Z,41.2
2018-08-22T02:03:01.602Z,41.2
2018-08-22T02:07:59.604Z,41.2
2018-08-22T02:12:57.545Z,41.2
2018-08-22T02:17:55.544Z,41.2
2018-08-22T02:22:53.695Z,41.3
2018-08-22T02:27:51.763Z,41.3
2018-08-22T02:32:49.852Z,41.3
2018-08-22T02:37:48.007Z,41.3
2018-08-22T02:42:45.981Z,41.3
2018-08-22T02:47:44.074Z,41.3
2018-08-22T02:52:42.097Z,41.4
2018-08-22T02:57:40.192Z,41.4
2018-08-22T03:02:37.757Z,41.4
2018-08-22T03:07:35.705Z,41.4
2018-08-22T03:12:33.876Z,41.4
2018-08-22T03:17:31.495Z,41.5
2018-08-22T03:22:29.231Z,41.5
2018-08-22T03:27:27.061Z,41.5
2018-08-22T03:32:25.171Z,41.5
2018-08-22T03:37:23.212Z,41.5
2018-08-22T03:42:21.157Z,41.5
2018-08-22T03:47:19.212Z,41.6
2018-08-22T03:52:17.284Z,41.6
2018-08-22T03:57:15.297Z,41.6
2018-08-22T04:02:13.383Z,41.6
2018-08-22T04:07:11.515Z,41.6
2018-08-22T04:12:09.608Z,41.6
2018-08-22T04:17:07.144Z,41.6
2018-08-22T04:22:05.187Z,41.6
2018-08-22T04:27:03.273Z,41.7
2018-08-22T04:32:01.441Z,41.6
2018-08-22T04:36:59.448Z,41.6
2018-08-22T04:41:57.534Z,41.6
2018-08-22T04:46:55.575Z,41.6
2018-08-22T04:51:53.669Z,41.5
2018-08-22T04:56:51.854Z,41.5
2018-08-22T05:01:49.301Z,41.5
2018-08-22T05:06:46.922Z,41.6
2018-08-22T05:11:45.038Z,41.6
2018-08-22T05:16:43.223Z,41.6
2018-08-22T05:21:41.380Z,41.7
2018-08-22T05:26:39.410Z,41.8
2018-08-22T05:31:37.311Z,41.9
2018-08-22T05:36:35.302Z,42
2018-08-22T05:41:33.335Z,42.1
2018-08-22T05:46:31.806Z,42.2
2018-08-22T05:51:29.820Z,42.3
2018-08-22T05:56:27.875Z,42.5
2018-08-22T06:01:25.832Z,42.6
2018-08-22T06:06:23.594Z,42.7
2018-08-22T06:11:21.729Z,42.7
2018-08-22T06:16:19.649Z,42.8
2018-08-22T06:21:17.721Z,43
2018-08-22T06:26:15.609Z,43
2018-08-22T06:31:13.833Z,43.2
2018-08-22T06:36:12.061Z,43.2
2018-08-22T06:41:10.232Z,43.3
2018-08-22T06:46:07.853Z,43.4
2018-08-22T06:51:06.055Z,43.5
2018-08-22T06:56:04.094Z,43.6
2018-08-22T07:01:02.125Z,43.6
2018-08-22T07:06:00.106Z,43.7
2018-08-22T07:10:58.444Z,43.8
2018-08-22T07:15:56.349Z,43.9
2018-08-22T07:20:54.777Z,43.9
2018-08-22T07:25:53.002Z,44
2018-08-22T07:30:51.115Z,44
2018-08-22T07:35:50.308Z,44.1
2018-08-22T07:40:48.741Z,44.2
2018-08-22T07:45:48.551Z,44.2
2018-08-22T07:50:46.919Z,44.3
2018-08-22T07:55:45.201Z,44.3
2018-08-22T08:00:43.433Z,44.4
2018-08-22T08:05:41.547Z,44.4
2018-08-22T08:10:39.680Z,44.4
2018-08-22T08:15:38.026Z,44.5
2018-08-22T08:20:36.278Z,44.4
2018-08-22T08:25:34.435Z,44.3
2018-08-22T08:30:33.871Z,44.2
2018-08-22T08:35:31.823Z,44.1
2018-08-22T08:40:30.165Z,44.1
2018-08-22T08:45:28.148Z,43.9
2018-08-22T08:50:26.343Z,43.8
2018-08-22T08:55:23.848Z,43.7
2018-08-22T09:00:22.219Z,43.6
2018-08-22T09:05:20.726Z,43.5
2018-08-22T09:10:19.055Z,43.5
2018-08-22T09:15:17.703Z,43.3
2018-08-22T09:20:16.111Z,43.1
2018-08-22T09:25:14.202Z,43
2018-08-22T09:30:12.415Z,42.9
2018-08-22T09:35:10.573Z,42.7
2018-08-22T09:40:08.645Z,42.6
2018-08-22T09:45:06.672Z,42.5
2018-08-22T09:50:05.179Z,42.3
2018-08-22T09:55:03.328Z,42.1
2018-08-22T10:00:01.701Z,42
2018-08-22T10:05:00.061Z,41.8
2018-08-22T11:44:34.688Z,40.2
2018-08-22T11:49:32.877Z,40.1
2018-08-22T11:54:31.080Z,40
2018-08-22T11:59:29.227Z,40
2018-08-22T12:04:27.366Z,40
2018-08-22T12:09:25.566Z,39.9
2018-08-22T12:14:23.661Z,39.9
2018-08-22T12:19:21.836Z,39.8
2018-08-22T12:24:20.196Z,39.8
2018-08-22T12:29:18.413Z,39.7
2018-08-22T12:34:16.461Z,39.6
2018-08-22T12:39:14.743Z,39.5
2018-08-22T12:44:12.881Z,39.3
2018-08-22T12:49:11.114Z,39.1
2018-08-22T12:54:09.167Z,39.1
2018-08-22T12:59:06.904Z,38.9
2018-08-22T13:04:05.342Z,38.7
2018-08-22T13:09:03.512Z,38.6
2018-08-22T13:14:01.314Z,38.6
2018-08-22T13:18:59.617Z,38.4
2018-08-22T13:23:57.857Z,38.3
2018-08-22T13:28:56.072Z,38.1
2018-08-22T13:33:54.228Z,38.1
2018-08-22T13:38:53.820Z,38
2018-08-22T13:43:51.903Z,38
2018-08-22T13:48:50.214Z,37.9
2018-08-22T13:53:48.287Z,37.8
2018-08-22T13:58:46.709Z,37.7
2018-08-22T14:03:44.928Z,37.6
2018-08-22T14:08:43.147Z,37.5
2018-08-22T14:13:41.320Z,37.5
2018-08-22T14:18:39.661Z,37.4
2018-08-22T14:23:37.927Z,37.4
2018-08-22T14:28:36.118Z,37.3
2018-08-22T14:33:34.063Z,37.3
2018-08-22T14:38:32.549Z,37.3
2018-08-22T14:43:30.856Z,37.2
2018-08-22T14:48:29.297Z,37.1
2018-08-22T14:53:27.404Z,37.1
2018-08-22T14:58:25.247Z,37.2
2018-08-22T15:03:24.352Z,37
2018-08-22T15:08:22.657Z,37
2018-08-22T15:13:21.043Z,37
2018-08-22T15:18:18.938Z,36.9
2018-08-22T15:23:17.023Z,36.9
2018-08-22T15:28:15.182Z,36.9
2018-08-22T15:33:13.356Z,36.8
2018-08-22T15:38:11.446Z,36.8
2018-08-22T15:43:09.668Z,36.9
2018-08-22T15:48:07.966Z,36.9
2018-08-22T15:53:06.195Z,36.8
2018-08-22T15:58:04.483Z,36.8
2018-08-22T16:03:02.566Z,36.8
2018-08-22T16:08:00.898Z,36.8
2018-08-22T16:12:59.094Z,36.8
2018-08-22T16:17:56.830Z,36.8
2018-08-22T16:22:54.879Z,36.9
2018-08-22T16:27:52.888Z,36.9
2018-08-22T16:32:50.704Z,36.9
2018-08-22T16:37:48.627Z,36.9
2018-08-22T16:42:46.719Z,37
2018-08-22T16:47:44.834Z,37
2018-08-22T16:52:43.048Z,37
2018-08-22T16:57:41.253Z,37
2018-08-22T17:02:39.186Z,37.1
2018-08-22T17:07:37.377Z,37.1
2018-08-22T17:12:35.681Z,37.1
2018-08-22T17:17:33.754Z,37.2
2018-08-22T17:22:31.973Z,37.2
2018-08-22T17:27:30.230Z,37.2
2018-08-22T17:32:28.464Z,37.3
2018-08-22T17:37:26.593Z,37.3
2018-08-22T17:42:24.684Z,37.3
2018-08-22T17:47:22.716Z,37.3
2018-08-22T17:52:20.877Z,37.4
2018-08-22T17:57:18.982Z,37.4
2018-08-22T18:02:16.752Z,37.4
2018-08-22T18:07:14.348Z,37.4
2018-08-22T18:12:12.427Z,37.5
2018-08-22T18:17:11.066Z,37.5
2018-08-22T18:22:08.514Z,37.5
2018-08-22T18:27:06.803Z,37.5
2018-08-22T18:32:05.162Z,37.6
2018-08-22T18:37:02.919Z,37.6
2018-08-22T18:42:01.152Z,37.6
2018-08-22T18:46:59.316Z,37.6
2018-08-22T18:51:57.485Z,37.7
2018-08-22T18:56:55.573Z,37.7
2018-08-22T19:01:53.627Z,37.7
2018-08-22T19:06:51.788Z,37.7
2018-08-22T19:11:49.799Z,37.7
2018-08-22T19:16:47.640Z,37.8
2018-08-22T19:21:45.715Z,37.8
2018-08-22T19:26:43.923Z,37.8
2018-08-22T19:31:41.965Z,37.9
2018-08-22T19:36:40.174Z,37.9
2018-08-22T19:41:38.303Z,37.9
2018-08-22T19:46:36.352Z,38
2018-08-22T19:51:34.467Z,38
2018-08-22T19:56:32.683Z,38
2018-08-22T20:01:31.089Z,38
2018-08-22T20:06:29.253Z,38.1
2018-08-22T20:11:27.319Z,38.1
2018-08-22T20:16:25.443Z,38.1
2018-08-22T20:21:23.613Z,38.2
2018-08-22T20:26:21.526Z,38.2
2018-08-22T20:31:19.671Z,38.3
2018-08-22T20:36:17.338Z,38.3
2018-08-22T20:41:15.349Z,38.3
2018-08-22T20:46:13.440Z,38.3
2018-08-22T20:51:11.628Z,38.4
2018-08-22T20:56:09.576Z,38.4
2018-08-22T21:01:07.810Z,38.5
2018-08-22T21:06:06.141Z,38.5
2018-08-22T21:11:04.294Z,38.5
2018-08-22T21:16:02.186Z,38.6
2018-08-22T21:21:00.533Z,38.6
2018-08-22T21:25:58.902Z,38.7
2018-08-22T21:30:56.995Z,38.7
2018-08-22T21:35:55.047Z,38.7
2018-08-22T21:40:53.068Z,38.8
2018-08-22T21:45:51.334Z,38.8
2018-08-22T21:50:49.381Z,38.9
2018-08-22T21:55:47.480Z,38.9
2018-08-22T22:00:45.753Z,38.9
2018-08-22T22:05:43.924Z,38.9
2018-08-22T22:10:42.073Z,39
2018-08-22T22:15:39.761Z,39
2018-08-22T22:20:37.711Z,39
2018-08-22T22:25:35.711Z,39.1
2018-08-22T22:30:33.869Z,39.1
2018-08-22T22:35:31.922Z,39.1
2018-08-22T22:40:29.886Z,39.2
2018-08-22T22:45:27.784Z,39.2
2018-08-22T22:50:25.807Z,39.2
2018-08-22T22:55:23.756Z,39.2
2018-08-22T23:00:21.955Z,39.2
2018-08-22T23:05:20.145Z,39.3
2018-08-22T23:10:18.170Z,39.3
2018-08-22T23:15:15.835Z,39.3
2018-08-22T23:20:13.668Z,39.3
2018-08-22T23:25:11.724Z,39.3
2018-08-22T23:30:09.807Z,39.4
2018-08-22T23:35:07.819Z,39.4
2018-08-22T23:40:06.217Z,39.4
2018-08-22T23:45:04.113Z,39.4
2018-08-22T23:50:02.267Z,39.4
2018-08-22T23:55:00.285Z,39.4
2018-08-22T23:59:58.203Z,39.4
